Clovis, NM

6:49 PM MDT on April 27, 2015 (GMT -0600)
Tucumcari Municipal | | Change Station
CLOSE
Current Station
Airport
Location: Tucumcari,
Elevation: 4065 ft
Nearby Weather Stations

Elev 4065 ft 35.18 °N, 103.60 °W | Updated 13 minutes ago

Rain
Rain
41 °F
Feels Like 31 °F
N
23
Wind Variable Wind from NE
Gusts 30 mph

Today
High -- | Low -- °F
--% Chance of Precip.
Yesterday
High -- | Low -- °F
Precip. -- in
6:07 AM 7:34 PM
Waxing Gibbous, 69% visible
Pressure 30.14 in
Visibility 10.0 miles
Clouds Scattered Clouds 1500 ft
Scattered Clouds 2000 ft
Overcast 6000 ft
Windchill 31 °F
Dew Point 37 °F
Humidity 86%
Rainfall 1.62 in
Snow Depth Not available.
UV 0 out of 12
Pollen 5.60 out of 12
Air Quality Not available.
Flu Activity Local Activity
SPECI KTCC 280036Z AUTO 05020G26KT 10SM SCT015 SCT020 OVC060 05/03 A3014 RMK AO2 PK WND 04032/0014 RAB19E31 P0000 T00500028

More Conditions Fewer Conditions

Pressure 30.14 in
Visibility 10.0 miles
Clouds Scattered Clouds 1500 ft
Scattered Clouds 2000 ft
Overcast 6000 ft
Windchill 31 °F
Dew Point 37 °F
Humidity 86%
Rainfall 1.62 in
Snow Depth Not available.
UV 0 out of 12
Pollen 5.60 out of 12
Air Quality Not available.
Flu Activity Local Activity
SPECI KTCC 280036Z AUTO 05020G26KT 10SM SCT015 SCT020 OVC060 05/03 A3014 RMK AO2 PK WND 04032/0014 RAB19E31 P0000 T00500028

More Conditions Fewer Conditions

Nowcast | as of 5:42 PM MDT on April 27, 2015

Areas of light to moderate rainfall will continue early this evening across much of eastern New Mexico. Rain amounts will average near a tenth of an inch...but locally heavier amounts to near a third of an inch will be possible in a few spots/ ponding of water on roadways and reduced visibilities in fog can be expected.

×

10-Day Weather Forecast

Almanac

Astronomy

Apr. 27, 2015 Rise Set
Actual Time
Civil Twilight
Nautical Twilight
Astronomical Twilight
Moon
Length of Visible Light
Length of Day
Tomorrow will be .
, % of the Moon is Illuminated

Today's Extremes

State Highs State Lows

Community

WunderPhotos

Upload Photos

1,817,497 photos uploaded!

WunderBlogs® & News

Nearby

Air Quality

  Air Quality AQ Index Pollutant
Not available.

Snow Depth

Station Depth Elevation

Earthquake Activity

City Distance Mag. Time & Date
Minimum magnitude displayed is 2.5.

Coastal Water Temperatures

Place Temperature

Stations

Nearby Weather Stations

Station Location Temp. Windchill Dew Point Humidity Wind Precip. Elev Updated Type